createdAt,value
2022-11-27T00:01:37.896Z,20.20
2022-11-27T00:04:08.924Z,16.60
2022-11-27T00:06:39.951Z,15.63
2022-11-27T00:09:16.266Z,40.60
2022-11-27T00:11:45.016Z,37.03
2022-11-27T00:14:15.316Z,30.13
2022-11-27T00:16:43.380Z,27.90
2022-11-27T00:19:11.858Z,27.30
2022-11-27T00:21:39.632Z,21.27
2022-11-27T00:24:08.887Z,27.40
2022-11-27T00:26:38.364Z,23.07
2022-11-27T00:29:09.627Z,20.33
2022-11-27T00:31:38.272Z,16.67
2022-11-27T00:34:08.705Z,11.83
2022-11-27T00:36:37.789Z,10.90
2022-11-27T00:39:05.972Z,12.57
2022-11-27T00:41:34.336Z,11.50
2022-11-27T00:44:01.921Z,11.57
2022-11-27T00:46:33.529Z,11.43
2022-11-27T00:49:04.223Z,11.60
2022-11-27T00:51:32.103Z,12.80
2022-11-27T00:53:59.986Z,11.33
2022-11-27T00:56:31.500Z,10.27
2022-11-27T00:58:59.308Z,11.03
2022-11-27T01:01:36.482Z,11.33
2022-11-27T01:04:06.874Z,11.77
2022-11-27T01:06:34.804Z,11.20
2022-11-27T01:09:03.216Z,11.60
2022-11-27T01:11:34.588Z,12.30
2022-11-27T01:14:07.067Z,10.53
2022-11-27T01:16:36.423Z,12.83
2022-11-27T01:19:06.376Z,14.43
2022-11-27T01:21:35.982Z,15.77
2022-11-27T01:24:05.427Z,13.17
2022-11-27T01:26:32.981Z,12.30
2022-11-27T01:29:00.694Z,13.20
2022-11-27T01:31:32.508Z,13.77
2022-11-27T01:34:11.726Z,12.57
2022-11-27T01:36:39.282Z,14.10
2022-11-27T01:39:06.877Z,14.57
2022-11-27T01:41:39.895Z,15.23
2022-11-27T01:44:25.533Z,11.43
2022-11-27T01:47:00.084Z,11.07
2022-11-27T01:49:46.393Z,12.40
2022-11-27T01:52:30.158Z,11.80
2022-11-27T01:55:21.625Z,13.67
2022-11-27T01:58:14.437Z,10.63
2022-11-27T02:00:42.483Z,11.03
2022-11-27T02:03:10.448Z,12.67
2022-11-27T02:05:38.157Z,13.13
2022-11-27T02:08:14.584Z,16.70
2022-11-27T02:12:03.127Z,17.70
2022-11-27T02:14:35.601Z,26.43
2022-11-27T02:17:20.602Z,27.33
2022-11-27T02:20:20.944Z,34.47
2022-11-27T02:23:40.641Z,22.80
2022-11-27T02:26:48.449Z,25.23
2022-11-27T02:29:22.902Z,28.70
2022-11-27T02:32:10.306Z,29.13
2022-11-27T02:34:50.745Z,31.90
2022-11-27T02:37:44.069Z,33.47
2022-11-27T02:40:26.149Z,28.77
2022-11-27T02:43:03.629Z,29.43
2022-11-27T02:45:45.448Z,24.10
2022-11-27T02:48:21.376Z,28.90
2022-11-27T02:50:52.763Z,25.30
2022-11-27T02:53:29.687Z,23.60
2022-11-27T02:55:59.120Z,23.40
2022-11-27T02:58:29.977Z,19.90
2022-11-27T03:00:58.795Z,23.23
2022-11-27T03:03:34.685Z,21.73
2022-11-27T03:06:09.597Z,22.00
2022-11-27T03:09:10.484Z,18.23
2022-11-27T03:11:38.525Z,20.93
2022-11-27T03:14:09.585Z,16.03
2022-11-27T03:16:54.788Z,15.00
2022-11-27T03:19:37.624Z,14.93
2022-11-27T03:22:05.677Z,14.80
2022-11-27T03:24:36.196Z,17.37
2022-11-27T03:27:05.324Z,17.10
2022-11-27T03:29:54.922Z,17.27
2022-11-27T03:32:22.793Z,15.90
2022-11-27T03:34:50.981Z,16.20
2022-11-27T03:37:18.649Z,14.40
2022-11-27T03:39:49.381Z,14.47
2022-11-27T03:42:33.658Z,20.57
2022-11-27T03:45:22.279Z,23.43
2022-11-27T03:48:04.598Z,23.23
2022-11-27T03:51:05.516Z,17.43
2022-11-27T03:54:02.525Z,13.77
2022-11-27T03:57:01.558Z,13.80
2022-11-27T03:59:38.986Z,15.97
2022-11-27T04:02:06.537Z,10.17
2022-11-27T04:04:34.141Z,15.83
2022-11-27T04:07:01.687Z,20.17
2022-11-27T04:09:29.177Z,18.33
2022-11-27T04:11:56.681Z,17.60
2022-11-27T04:14:24.195Z,11.87
2022-11-27T04:16:51.762Z,12.17
2022-11-27T04:19:19.234Z,17.80
2022-11-27T04:21:46.739Z,17.23
2022-11-27T04:24:14.352Z,80.57
2022-11-27T04:26:41.950Z,101.77
2022-11-27T04:29:09.511Z,47.07
2022-11-27T04:31:37.058Z,37.33
2022-11-27T04:34:04.578Z,24.57
2022-11-27T04:36:37.597Z,21.57
2022-11-27T04:39:06.716Z,14.13
2022-11-27T04:41:34.282Z,9.90
2022-11-27T04:44:02.060Z,12.83
2022-11-27T04:46:29.672Z,10.17
2022-11-27T04:48:57.256Z,16.30
2022-11-27T04:51:24.888Z,12.10
2022-11-27T04:53:52.348Z,11.47
2022-11-27T04:56:19.841Z,20.53
2022-11-27T04:58:47.369Z,21.30
2022-11-27T05:01:15.934Z,23.73
2022-11-27T05:03:43.440Z,22.47
2022-11-27T05:06:10.969Z,23.30
2022-11-27T05:08:38.413Z,16.77
2022-11-27T05:11:13.172Z,16.20
2022-11-27T05:13:41.652Z,15.43
2022-11-27T05:16:09.578Z,19.20
2022-11-27T05:18:37.468Z,29.27
2022-11-27T05:21:11.989Z,39.07
2022-11-27T05:23:39.575Z,56.90
2022-11-27T05:26:07.603Z,45.23
2022-11-27T05:28:35.145Z,41.67
2022-11-27T05:31:02.720Z,33.90
2022-11-27T05:33:30.248Z,39.23
2022-11-27T05:35:57.693Z,38.93
2022-11-27T05:38:25.245Z,34.10
2022-11-27T05:40:52.744Z,31.33
2022-11-27T05:43:20.263Z,29.93
2022-11-27T05:45:48.144Z,22.97
2022-11-27T05:48:15.605Z,38.03
2022-11-27T05:50:43.058Z,85.37
2022-11-27T05:53:10.561Z,30.23
2022-11-27T05:55:38.010Z,42.87
2022-11-27T05:58:05.540Z,58.53
2022-11-27T06:00:33.069Z,58.27
2022-11-27T06:03:00.707Z,54.53
2022-11-27T06:05:28.322Z,61.40
2022-11-27T06:07:55.939Z,44.40
2022-11-27T06:10:23.966Z,35.03
2022-11-27T06:12:51.414Z,44.83
2022-11-27T06:15:18.922Z,55.20
2022-11-27T06:17:46.339Z,39.77
2022-11-27T06:20:14.055Z,30.93
2022-11-27T06:22:41.519Z,40.97
2022-11-27T06:25:09.494Z,45.27
2022-11-27T06:27:37.466Z,29.37
2022-11-27T06:30:06.126Z,26.37
2022-11-27T06:32:33.602Z,31.30
2022-11-27T06:35:01.184Z,29.73
2022-11-27T06:37:28.776Z,32.50
2022-11-27T06:39:56.189Z,32.30
2022-11-27T06:42:23.799Z,25.70
2022-11-27T06:44:51.284Z,29.50
2022-11-27T06:47:18.770Z,30.90
2022-11-27T06:49:46.230Z,27.97
2022-11-27T06:52:13.788Z,28.30
2022-11-27T06:54:41.406Z,26.23
2022-11-27T06:57:09.149Z,25.27
2022-11-27T06:59:36.566Z,24.00
2022-11-27T07:02:04.316Z,40.47
2022-11-27T07:04:32.442Z,28.63
2022-11-27T07:07:00.025Z,29.90
2022-11-27T07:09:27.536Z,19.63
2022-11-27T07:11:55.063Z,15.23
2022-11-27T07:14:22.540Z,19.17
2022-11-27T07:16:50.055Z,17.23
2022-11-27T07:19:17.657Z,18.30
2022-11-27T07:21:47.945Z,16.23
2022-11-27T07:24:15.540Z,20.20
2022-11-27T07:26:43.030Z,22.07
2022-11-27T07:29:10.612Z,21.07
2022-11-27T07:31:38.269Z,18.63
2022-11-27T07:34:11.725Z,15.33
2022-11-27T07:36:43.221Z,14.10
2022-11-27T07:39:10.733Z,14.60
2022-11-27T07:41:38.738Z,15.23
2022-11-27T07:44:06.298Z,13.33
2022-11-27T07:46:33.905Z,15.80
2022-11-27T07:49:03.925Z,14.77
2022-11-27T07:51:31.538Z,18.37
2022-11-27T07:54:00.776Z,20.00
2022-11-27T07:56:28.573Z,16.57
2022-11-27T07:58:58.050Z,16.50
2022-11-27T08:01:25.843Z,16.07
2022-11-27T08:03:53.407Z,18.57
2022-11-27T08:06:24.812Z,18.97
2022-11-27T08:08:56.010Z,29.97
2022-11-27T08:11:30.486Z,19.97
2022-11-27T08:14:06.792Z,18.20
2022-11-27T08:16:36.444Z,18.27
2022-11-27T08:19:04.789Z,16.23
2022-11-27T08:21:35.411Z,17.13
2022-11-27T08:24:05.159Z,14.53
2022-11-27T08:26:32.896Z,15.30
2022-11-27T08:29:01.313Z,16.83
2022-11-27T08:31:30.052Z,18.77
2022-11-27T08:33:57.737Z,22.03
2022-11-27T08:36:28.132Z,17.63
2022-11-27T08:38:59.321Z,15.53
2022-11-27T08:41:26.851Z,17.57
2022-11-27T08:43:55.955Z,18.70
2022-11-27T08:46:23.513Z,16.87
2022-11-27T08:48:51.334Z,18.20
2022-11-27T08:51:19.011Z,14.47
2022-11-27T08:53:47.830Z,16.77
2022-11-27T08:56:19.190Z,15.70
2022-11-27T08:58:50.402Z,23.10
2022-11-27T09:01:29.677Z,15.73
2022-11-27T09:03:59.733Z,20.50
2022-11-27T09:06:31.423Z,14.43
2022-11-27T09:09:05.231Z,23.20
2022-11-27T09:11:34.534Z,23.17
2022-11-27T09:14:04.812Z,18.37
2022-11-27T09:16:33.127Z,16.60
2022-11-27T09:19:02.626Z,16.90
2022-11-27T09:21:31.683Z,18.93
2022-11-27T09:24:09.843Z,24.60
2022-11-27T09:26:38.614Z,19.20
2022-11-27T09:29:06.408Z,19.10
2022-11-27T09:31:33.980Z,13.30
2022-11-27T09:34:05.685Z,20.60
2022-11-27T09:36:33.787Z,14.77
2022-11-27T09:39:03.585Z,15.17
2022-11-27T09:41:50.478Z,13.50
2022-11-27T09:44:47.021Z,14.60
2022-11-27T09:47:42.492Z,38.80
2022-11-27T09:50:17.894Z,15.83
2022-11-27T09:52:55.086Z,15.53
2022-11-27T09:55:42.632Z,11.97
2022-11-27T09:58:22.361Z,17.30
2022-11-27T10:00:49.964Z,15.33
2022-11-27T10:03:25.736Z,10.30
2022-11-27T10:06:36.215Z,11.87
2022-11-27T10:09:19.350Z,9.13
2022-11-27T10:12:43.530Z,10.00
2022-11-27T10:15:56.713Z,10.10
2022-11-27T10:18:40.955Z,14.70
2022-11-27T10:21:17.765Z,11.30
2022-11-27T10:24:05.991Z,12.00
2022-11-27T10:26:57.738Z,44.07
2022-11-27T10:29:52.273Z,16.30
2022-11-27T10:35:30.798Z,6.87
2022-11-27T10:38:26.630Z,5.77
2022-11-27T10:41:34.301Z,3.67
2022-11-27T10:44:29.384Z,4.60
2022-11-27T10:47:06.615Z,8.50
2022-11-27T10:49:38.452Z,6.50
2022-11-27T10:52:06.002Z,5.13
2022-11-27T10:54:39.471Z,11.50
2022-11-27T10:57:31.587Z,8.33
2022-11-27T11:00:24.261Z,7.23
2022-11-27T11:03:07.808Z,5.57
2022-11-27T11:06:18.540Z,9.27
2022-11-27T11:08:27.297Z,5.97
2022-11-27T11:11:04.952Z,7.53
2022-11-27T11:13:46.082Z,5.17
2022-11-27T11:16:24.555Z,5.03
2022-11-27T11:18:55.429Z,5.90
2022-11-27T11:21:45.134Z,5.97
2022-11-27T11:24:29.183Z,4.93
2022-11-27T11:27:07.374Z,4.50
2022-11-27T11:29:48.848Z,5.77
2022-11-27T11:32:29.590Z,6.77
2022-11-27T11:35:26.856Z,5.27
2022-11-27T11:37:55.737Z,16.63
2022-11-27T11:40:33.371Z,6.90
2022-11-27T11:43:10.606Z,15.23
2022-11-27T11:45:48.900Z,4.73
2022-11-27T11:48:28.163Z,9.10
2022-11-27T11:51:08.561Z,13.93
2022-11-27T11:53:42.975Z,20.27
2022-11-27T11:56:28.957Z,9.83
2022-11-27T11:59:52.624Z,7.13
2022-11-27T12:02:43.115Z,7.90
2022-11-27T12:05:45.449Z,5.83
2022-11-27T12:09:37.489Z,7.37
2022-11-27T12:15:46.375Z,4.53
2022-11-27T12:21:50.623Z,7.03
2022-11-27T12:24:48.468Z,8.70
2022-11-27T12:42:25.844Z,11.13
2022-11-27T12:45:17.971Z,15.60
2022-11-27T12:47:52.826Z,12.97
2022-11-27T12:50:44.610Z,8.23
2022-11-27T12:53:35.471Z,6.87
2022-11-27T12:56:24.714Z,11.90
2022-11-27T12:59:04.172Z,12.40
2022-11-27T13:01:41.662Z,6.63
2022-11-27T13:04:37.719Z,10.27
2022-11-27T13:07:58.088Z,8.40
2022-11-27T13:10:39.762Z,13.17
2022-11-27T13:13:14.438Z,12.07
2022-11-27T13:16:00.073Z,8.23
2022-11-27T13:18:47.331Z,6.87
2022-11-27T13:21:28.207Z,11.03
2022-11-27T13:23:56.345Z,9.23
2022-11-27T13:27:04.074Z,23.13
2022-11-27T13:30:05.310Z,9.53
2022-11-27T13:32:49.337Z,10.20
2022-11-27T13:35:42.892Z,10.67
2022-11-27T13:38:26.312Z,13.23
2022-11-27T13:40:56.419Z,11.90
2022-11-27T13:43:43.931Z,9.50
2022-11-27T13:46:29.769Z,10.00
2022-11-27T13:49:03.446Z,9.63
2022-11-27T13:51:39.200Z,13.80
2022-11-27T13:54:28.756Z,16.57
2022-11-27T13:57:08.921Z,10.27
2022-11-27T13:59:39.608Z,13.93
2022-11-27T14:02:10.449Z,23.33
2022-11-27T14:04:56.575Z,29.87
2022-11-27T14:07:41.905Z,28.13
2022-11-27T14:10:27.041Z,21.47
2022-11-27T14:13:24.844Z,22.13
2022-11-27T14:16:03.853Z,16.47
2022-11-27T14:18:33.795Z,26.37
2022-11-27T14:21:04.265Z,26.47
2022-11-27T14:23:54.293Z,27.30
2022-11-27T14:26:27.621Z,33.00
2022-11-27T14:28:56.960Z,17.53
2022-11-27T14:31:33.342Z,15.93
2022-11-27T14:34:16.100Z,13.33
2022-11-27T14:36:51.232Z,13.23
2022-11-27T14:39:37.086Z,15.63
2022-11-27T14:42:18.513Z,29.63
2022-11-27T14:45:10.211Z,22.90
2022-11-27T14:47:50.226Z,25.20
2022-11-27T14:50:25.631Z,19.83
2022-11-27T14:53:01.194Z,27.27
2022-11-27T14:55:34.746Z,19.77
2022-11-27T14:58:08.593Z,20.37
2022-11-27T15:01:01.413Z,19.17
2022-11-27T15:03:29.822Z,27.50
2022-11-27T15:06:10.344Z,37.40
2022-11-27T15:08:39.116Z,35.83
2022-11-27T15:11:07.575Z,33.77
2022-11-27T15:13:39.054Z,34.37
2022-11-27T15:16:21.300Z,35.97
2022-11-27T15:19:31.228Z,30.83
2022-11-27T15:21:59.639Z,33.83
2022-11-27T15:24:41.578Z,43.10
2022-11-27T15:27:19.080Z,49.83
2022-11-27T15:30:06.198Z,49.40
2022-11-27T15:33:00.817Z,40.33
2022-11-27T15:36:07.245Z,44.23
2022-11-27T15:38:41.802Z,39.03
2022-11-27T15:41:32.934Z,46.83
2022-11-27T15:44:25.151Z,49.53
2022-11-27T15:46:56.947Z,70.33
2022-11-27T15:49:27.190Z,91.13
2022-11-27T15:52:09.509Z,104.43
2022-11-27T15:54:44.315Z,107.83
2022-11-27T15:57:17.278Z,88.77
2022-11-27T15:59:50.415Z,92.73
2022-11-27T16:02:20.283Z,62.93
2022-11-27T16:04:59.700Z,55.07
2022-11-27T16:07:33.039Z,71.73
2022-11-27T16:10:06.090Z,89.37
2022-11-27T16:12:38.036Z,67.70
2022-11-27T16:15:14.959Z,76.90
2022-11-27T16:18:04.235Z,83.17
2022-11-27T16:20:33.315Z,89.60
2022-11-27T16:23:08.492Z,96.53
2022-11-27T16:25:41.646Z,92.23
2022-11-27T16:28:17.054Z,60.40
2022-11-27T16:30:59.320Z,60.53
2022-11-27T16:33:30.745Z,59.37
2022-11-27T16:36:15.100Z,47.83
2022-11-27T16:38:46.506Z,40.57
2022-11-27T16:41:20.715Z,56.17
2022-11-27T16:43:53.478Z,49.80
2022-11-27T16:46:30.853Z,47.30
2022-11-27T16:49:04.134Z,47.27
2022-11-27T16:51:34.702Z,44.33
2022-11-27T16:54:07.380Z,42.43
2022-11-27T16:56:40.058Z,46.13
2022-11-27T16:59:13.617Z,51.43
2022-11-27T17:01:47.372Z,56.93
2022-11-27T17:04:23.168Z,68.00
2022-11-27T17:07:08.058Z,72.60
2022-11-27T17:09:58.955Z,62.63
2022-11-27T17:12:28.583Z,56.77
2022-11-27T17:15:14.971Z,60.23
2022-11-27T17:17:47.597Z,50.87
2022-11-27T17:20:17.717Z,67.40
2022-11-27T17:22:50.917Z,57.60
2022-11-27T17:25:20.379Z,55.23
2022-11-27T17:28:10.427Z,64.77
2022-11-27T17:30:45.170Z,47.93
2022-11-27T17:33:26.825Z,48.30
2022-11-27T17:35:59.476Z,49.23
2022-11-27T17:38:31.523Z,43.13
2022-11-27T17:41:11.058Z,39.57
2022-11-27T17:43:42.404Z,34.20
2022-11-27T17:46:30.823Z,46.60
2022-11-27T17:49:12.523Z,54.80
2022-11-27T17:51:43.811Z,56.33
2022-11-27T17:54:13.514Z,56.07
2022-11-27T17:56:45.336Z,65.47
2022-11-27T17:59:25.687Z,70.23
2022-11-27T18:01:55.976Z,75.47
2022-11-27T18:04:31.977Z,83.40
2022-11-27T18:07:02.883Z,78.07
2022-11-27T18:09:36.264Z,76.47
2022-11-27T18:12:10.559Z,72.20
2022-11-27T18:14:42.310Z,66.43
2022-11-27T18:17:21.308Z,46.00
2022-11-27T18:19:58.589Z,41.23
2022-11-27T18:22:36.681Z,62.07
2022-11-27T18:25:10.709Z,55.10
2022-11-27T18:27:41.722Z,51.23
2022-11-27T18:30:12.368Z,63.67
2022-11-27T18:33:05.615Z,52.83
2022-11-27T18:36:02.415Z,43.73
2022-11-27T18:38:36.418Z,37.80
2022-11-27T18:41:31.291Z,25.43
2022-11-27T18:46:47.212Z,18.83
2022-11-27T18:49:23.495Z,18.37
2022-11-27T18:51:58.188Z,11.20
2022-11-27T18:54:31.268Z,11.20
2022-11-27T18:57:03.016Z,9.87
2022-11-27T18:59:56.157Z,14.03
2022-11-27T19:02:25.745Z,8.33
2022-11-27T19:04:57.689Z,8.93
2022-11-27T19:07:34.756Z,7.83
2022-11-27T19:10:24.079Z,8.13
2022-11-27T19:12:54.351Z,12.43
2022-11-27T19:15:27.473Z,13.53
2022-11-27T19:17:59.107Z,44.27
2022-11-27T19:20:33.466Z,91.73
2022-11-27T19:23:26.124Z,32.47
2022-11-27T19:25:56.286Z,189.70
2022-11-27T19:28:47.945Z,137.27
2022-11-27T19:31:18.699Z,135.10
2022-11-27T19:34:00.548Z,127.40
2022-11-27T19:36:32.136Z,38.60
2022-11-27T19:39:09.675Z,18.50
2022-11-27T19:44:26.049Z,16.10
2022-11-27T19:47:04.109Z,31.30
2022-11-27T19:49:34.040Z,106.43
2022-11-27T19:52:09.352Z,50.03
2022-11-27T19:54:41.293Z,45.73
2022-11-27T19:57:12.803Z,126.87
2022-11-27T19:59:48.080Z,161.23
2022-11-27T20:02:16.404Z,62.80
2022-11-27T20:04:45.696Z,36.33
2022-11-27T20:07:15.079Z,80.80
2022-11-27T20:09:45.536Z,53.93
2022-11-27T20:12:21.434Z,39.47
2022-11-27T20:15:01.067Z,20.90
2022-11-27T20:17:31.769Z,15.57
2022-11-27T20:20:06.893Z,8.73
2022-11-27T20:22:40.466Z,10.60
2022-11-27T20:25:20.437Z,14.43
2022-11-27T20:27:53.109Z,12.97
2022-11-27T20:30:30.647Z,15.87
2022-11-27T20:33:07.503Z,14.63
2022-11-27T20:35:44.486Z,15.40
2022-11-27T20:41:13.586Z,14.80
2022-11-27T20:43:48.514Z,13.60
2022-11-27T20:46:22.279Z,11.83
2022-11-27T20:48:53.893Z,7.27
2022-11-27T20:51:34.669Z,15.57
2022-11-27T20:54:13.159Z,11.20
2022-11-27T20:56:44.385Z,9.57
2022-11-27T20:59:16.409Z,11.93
2022-11-27T21:01:44.409Z,33.50
2022-11-27T21:04:23.039Z,16.80
2022-11-27T21:06:53.702Z,6.30
2022-11-27T21:09:22.628Z,8.17
2022-11-27T21:11:51.109Z,60.57
2022-11-27T21:14:21.983Z,37.47
2022-11-27T21:16:53.046Z,80.50
2022-11-27T21:19:27.953Z,56.40
2022-11-27T21:21:58.597Z,25.73
2022-11-27T21:24:31.227Z,117.40
2022-11-27T21:26:59.511Z,15.43
2022-11-27T21:29:31.771Z,9.70
2022-11-27T21:32:00.559Z,11.30
2022-11-27T21:34:29.584Z,15.23
2022-11-27T21:36:58.394Z,26.43
2022-11-27T21:39:27.561Z,21.60
2022-11-27T21:41:57.878Z,14.80
2022-11-27T21:44:27.964Z,17.13
2022-11-27T21:47:00.731Z,13.20
2022-11-27T21:49:51.679Z,11.10
2022-11-27T21:52:23.229Z,14.73
2022-11-27T21:54:52.882Z,18.23
2022-11-27T21:57:22.251Z,12.10
2022-11-27T21:59:51.631Z,20.87
2022-11-27T22:02:21.794Z,36.50
2022-11-27T22:04:49.873Z,60.37
2022-11-27T22:07:21.232Z,79.30
2022-11-27T22:09:48.931Z,72.63
2022-11-27T22:12:16.753Z,63.97
2022-11-27T22:14:46.945Z,57.63
2022-11-27T22:17:15.146Z,49.63
2022-11-27T22:19:43.128Z,37.43
2022-11-27T22:22:11.775Z,29.90
2022-11-27T22:24:42.025Z,23.53
2022-11-27T22:27:09.909Z,18.30
2022-11-27T22:29:37.863Z,15.83
2022-11-27T22:32:05.935Z,33.50
2022-11-27T22:34:34.581Z,27.37
2022-11-27T22:37:03.874Z,26.83
2022-11-27T22:39:32.283Z,23.10
2022-11-27T22:42:00.079Z,18.10
2022-11-27T22:44:27.681Z,16.63
2022-11-27T22:46:55.422Z,12.93
2022-11-27T22:49:23.371Z,13.20
2022-11-27T22:51:52.312Z,13.07
2022-11-27T22:54:24.894Z,19.33
2022-11-27T22:56:56.366Z,16.57
2022-11-27T22:59:33.295Z,16.67
2022-11-27T23:02:04.161Z,21.83
2022-11-27T23:04:36.459Z,15.80
2022-11-27T23:07:05.704Z,30.67
2022-11-27T23:09:34.905Z,46.10
2022-11-27T23:12:02.678Z,169.63
2022-11-27T23:14:30.524Z,41.50
2022-11-27T23:16:58.303Z,16.17
2022-11-27T23:19:25.957Z,13.63
2022-11-27T23:21:53.858Z,18.90
2022-11-27T23:24:21.451Z,14.23
2022-11-27T23:26:49.108Z,19.20
2022-11-27T23:29:16.951Z,13.37
2022-11-27T23:31:44.666Z,9.80
2022-11-27T23:34:17.069Z,10.90
2022-11-27T23:36:45.231Z,13.73
2022-11-27T23:39:14.246Z,11.37
2022-11-27T23:41:42.725Z,9.80
2022-11-27T23:44:11.750Z,8.87
2022-11-27T23:46:42.083Z,9.57
2022-11-27T23:49:09.678Z,7.07
2022-11-27T23:51:38.820Z,9.40
2022-11-27T23:54:11.438Z,7.27
2022-11-27T23:56:39.639Z,7.97
2022-11-27T23:59:07.849Z,8.63
